createdAt,value
2023-01-30T00:00:09.881Z,77.96
2023-01-30T00:01:09.886Z,78.17
2023-01-30T00:02:09.926Z,78.17
2023-01-30T00:03:09.851Z,77.96
2023-01-30T00:04:09.850Z,77.65
2023-01-30T00:05:09.911Z,77.44
2023-01-30T00:06:09.868Z,77.55
2023-01-30T00:07:09.806Z,77.55
2023-01-30T00:08:09.801Z,77.65
2023-01-30T00:09:09.781Z,77.86
2023-01-30T00:10:09.777Z,77.75
2023-01-30T00:11:09.778Z,77.65
2023-01-30T00:12:09.757Z,77.65
2023-01-30T00:13:09.747Z,77.44
2023-01-30T00:14:09.741Z,77.23
2023-01-30T00:15:09.720Z,77.65
2023-01-30T00:16:09.855Z,77.75
2023-01-30T00:17:09.703Z,76.99
2023-01-30T00:18:09.704Z,77.34
2023-01-30T00:19:09.682Z,77.13
2023-01-30T00:20:09.671Z,76.92
2023-01-30T00:21:09.678Z,77.20
2023-01-30T00:22:09.648Z,77.30
2023-01-30T00:23:09.646Z,77.40
2023-01-30T00:24:09.641Z,77.13
2023-01-30T00:25:09.736Z,76.92
2023-01-30T00:26:09.768Z,77.65
2023-01-30T00:27:09.590Z,77.23
2023-01-30T00:28:09.575Z,77.13
2023-01-30T00:29:09.569Z,76.92
2023-01-30T00:30:09.557Z,77.23
2023-01-30T00:31:09.560Z,76.92
2023-01-30T00:32:09.550Z,77.34
2023-01-30T00:33:09.526Z,77.34
2023-01-30T00:34:09.510Z,77.13
2023-01-30T00:35:09.506Z,77.23
2023-01-30T00:36:09.513Z,77.23
2023-01-30T00:37:09.481Z,76.92
2023-01-30T00:38:09.471Z,77.23
2023-01-30T00:39:09.461Z,77.13
2023-01-30T00:40:09.454Z,77.44
2023-01-30T00:41:09.450Z,77.34
2023-01-30T00:42:09.428Z,77.65
2023-01-30T00:44:09.410Z,77.03
2023-01-30T00:45:09.404Z,76.92
2023-01-30T00:46:09.462Z,77.13
2023-01-30T00:47:09.375Z,77.23
2023-01-30T00:48:09.370Z,76.92
2023-01-30T00:49:09.355Z,77.13
2023-01-30T00:50:09.342Z,77.13
2023-01-30T00:51:09.353Z,77.23
2023-01-30T00:52:09.321Z,77.13
2023-01-30T00:53:09.324Z,77.23
2023-01-30T00:54:09.297Z,77.23
2023-01-30T00:55:09.294Z,77.34
2023-01-30T00:56:09.311Z,77.44
2023-01-30T00:57:09.265Z,77.23
2023-01-30T00:58:09.260Z,77.44
2023-01-30T00:59:09.247Z,77.86
2023-01-30T01:00:09.254Z,77.86
2023-01-30T01:01:09.251Z,77.34
2023-01-30T01:02:09.227Z,77.23
2023-01-30T01:03:09.287Z,77.27
2023-01-30T01:04:09.194Z,77.69
2023-01-30T01:05:09.186Z,77.58
2023-01-30T01:06:09.186Z,78.27
2023-01-30T01:07:09.179Z,77.75
2023-01-30T01:08:09.150Z,77.86
2023-01-30T01:09:09.149Z,77.96
2023-01-30T01:10:09.126Z,77.34
2023-01-30T01:11:09.126Z,77.86
2023-01-30T01:12:09.117Z,77.89
2023-01-30T01:13:09.099Z,78.17
2023-01-30T01:14:09.089Z,77.96
2023-01-30T01:15:09.076Z,78.10
2023-01-30T01:16:09.122Z,78.00
2023-01-30T01:17:09.063Z,77.86
2023-01-30T01:18:09.046Z,77.89
2023-01-30T01:19:09.035Z,78.10
2023-01-30T01:20:09.028Z,77.79
2023-01-30T01:21:09.019Z,78.00
2023-01-30T01:22:09.013Z,77.86
2023-01-30T01:23:08.984Z,77.75
2023-01-30T01:24:08.981Z,77.55
2023-01-30T01:25:08.964Z,77.75
2023-01-30T01:26:08.974Z,77.55
2023-01-30T01:27:08.941Z,77.58
2023-01-30T01:28:08.942Z,78.10
2023-01-30T01:29:08.917Z,77.86
2023-01-30T01:30:08.911Z,77.55
2023-01-30T01:31:08.981Z,78.27
2023-01-30T01:32:09.002Z,78.06
2023-01-30T01:33:08.876Z,77.58
2023-01-30T01:34:08.871Z,78.17
2023-01-30T01:35:08.861Z,78.20
2023-01-30T01:36:08.858Z,78.10
2023-01-30T01:37:08.848Z,78.20
2023-01-30T01:38:08.837Z,78.00
2023-01-30T01:39:08.813Z,77.96
2023-01-30T01:40:08.802Z,78.00
2023-01-30T01:41:08.809Z,77.96
2023-01-30T01:42:10.002Z,78.27
2023-01-30T01:43:08.771Z,77.75
2023-01-30T01:44:08.765Z,77.65
2023-01-30T01:45:08.748Z,78.06
2023-01-30T01:46:08.784Z,77.55
2023-01-30T01:47:08.745Z,77.44
2023-01-30T01:48:08.715Z,77.86
2023-01-30T01:49:08.707Z,77.55
2023-01-30T01:50:08.730Z,77.44
2023-01-30T01:51:08.684Z,77.55
2023-01-30T01:52:08.686Z,78.06
2023-01-30T01:53:08.663Z,78.06
2023-01-30T01:54:08.653Z,77.65
2023-01-30T01:55:08.654Z,77.55
2023-01-30T01:56:08.634Z,77.44
2023-01-30T01:57:08.639Z,77.75
2023-01-30T01:58:08.609Z,77.86
2023-01-30T01:59:08.612Z,78.06
2023-01-30T02:00:08.588Z,78.17
2023-01-30T02:01:08.608Z,77.96
2023-01-30T02:02:08.623Z,77.86
2023-01-30T02:03:08.557Z,78.06
2023-01-30T02:04:08.549Z,78.27
2023-01-30T02:05:08.533Z,77.86
2023-01-30T02:06:08.527Z,78.27
2023-01-30T02:07:08.520Z,78.17
2023-01-30T02:08:08.510Z,78.38
2023-01-30T02:09:08.491Z,78.48
2023-01-30T02:10:08.489Z,78.48
2023-01-30T02:11:08.467Z,78.58
2023-01-30T02:12:08.481Z,79.41
2023-01-30T02:13:08.449Z,80.04
2023-01-30T02:14:08.439Z,79.72
2023-01-30T02:15:08.427Z,80.29
2023-01-30T02:16:08.441Z,80.35
2023-01-30T02:17:08.436Z,80.66
2023-01-30T02:18:08.408Z,80.46
2023-01-30T02:19:08.379Z,80.66
2023-01-30T02:20:08.378Z,80.56
2023-01-30T02:21:08.359Z,81.70
2023-01-30T02:22:08.361Z,81.32
2023-01-30T02:23:08.340Z,81.81
2023-01-30T02:24:08.332Z,81.60
2023-01-30T02:25:08.320Z,81.60
2023-01-30T02:26:08.313Z,81.60
2023-01-30T02:27:08.307Z,81.84
2023-01-30T02:28:08.293Z,81.81
2023-01-30T02:29:08.296Z,81.81
2023-01-30T02:30:08.267Z,81.74
2023-01-30T02:31:08.289Z,81.84
2023-01-30T02:32:08.285Z,81.95
2023-01-30T02:33:08.232Z,81.95
2023-01-30T02:34:08.227Z,81.84
2023-01-30T02:35:08.230Z,81.84
2023-01-30T02:36:08.205Z,81.84
2023-01-30T02:37:08.210Z,81.95
2023-01-30T02:38:08.182Z,81.74
2023-01-30T02:39:08.176Z,81.84
2023-01-30T02:40:08.165Z,81.95
2023-01-30T02:41:08.152Z,81.63
2023-01-30T02:42:08.161Z,81.84
2023-01-30T02:43:08.149Z,81.74
2023-01-30T02:44:08.121Z,81.70
2023-01-30T02:45:08.102Z,81.81
2023-01-30T02:46:08.132Z,81.81
2023-01-30T02:47:08.098Z,82.22
2023-01-30T02:48:08.071Z,82.22
2023-01-30T02:49:08.062Z,82.57
2023-01-30T02:50:08.051Z,82.53
2023-01-30T02:51:08.043Z,83.51
2023-01-30T02:52:08.044Z,83.47
2023-01-30T02:53:08.070Z,84.13
2023-01-30T02:54:08.011Z,83.61
2023-01-30T02:55:07.996Z,83.68
2023-01-30T02:56:07.990Z,84.23
2023-01-30T02:57:07.997Z,84.44
2023-01-30T02:58:07.976Z,84.86
2023-01-30T02:59:07.957Z,84.96
2023-01-30T03:00:07.949Z,84.34
2023-01-30T03:01:07.944Z,84.96
2023-01-30T03:02:07.978Z,84.75
2023-01-30T03:03:07.916Z,84.86
2023-01-30T03:04:07.909Z,84.65
2023-01-30T03:05:07.897Z,84.86
2023-01-30T03:06:07.885Z,85.06
2023-01-30T03:07:07.889Z,84.75
2023-01-30T03:08:07.857Z,84.55
2023-01-30T03:09:07.844Z,84.96
2023-01-30T03:10:07.846Z,84.86
2023-01-30T03:11:07.879Z,84.75
2023-01-30T03:12:07.847Z,84.96
2023-01-30T03:13:07.797Z,84.86
2023-01-30T03:14:07.802Z,84.65
2023-01-30T03:15:07.781Z,84.65
2023-01-30T03:16:07.828Z,84.75
2023-01-30T03:17:07.775Z,84.96
2023-01-30T03:18:07.744Z,84.75
2023-01-30T03:19:07.741Z,84.65
2023-01-30T03:20:07.727Z,84.96
2023-01-30T03:21:07.718Z,84.86
2023-01-30T03:22:07.735Z,84.86
2023-01-30T03:23:07.698Z,84.65
2023-01-30T03:24:07.687Z,84.75
2023-01-30T03:25:07.673Z,84.65
2023-01-30T03:26:07.667Z,84.75
2023-01-30T03:27:07.668Z,84.86
2023-01-30T03:28:07.638Z,84.75
2023-01-30T03:29:07.634Z,84.34
2023-01-30T03:30:07.625Z,84.30
2023-01-30T03:31:07.747Z,84.55
2023-01-30T03:32:07.612Z,84.41
2023-01-30T03:33:07.588Z,84.65
2023-01-30T03:34:07.574Z,84.41
2023-01-30T03:35:07.565Z,84.20
2023-01-30T03:36:07.557Z,83.99
2023-01-30T03:37:07.555Z,83.78
2023-01-30T03:38:07.535Z,83.68
2023-01-30T03:39:07.523Z,83.78
2023-01-30T03:40:07.514Z,83.89
2023-01-30T03:41:07.510Z,84.09
2023-01-30T03:42:07.506Z,84.09
2023-01-30T03:43:07.475Z,84.09
2023-01-30T03:44:07.486Z,83.78
2023-01-30T03:45:07.457Z,84.30
2023-01-30T03:46:07.503Z,83.68
2023-01-30T03:47:07.453Z,83.78
2023-01-30T03:48:07.446Z,83.99
2023-01-30T03:49:07.425Z,83.78
2023-01-30T03:50:07.410Z,83.78
2023-01-30T03:51:07.394Z,83.99
2023-01-30T03:52:07.397Z,84.20
2023-01-30T03:53:07.372Z,84.30
2023-01-30T03:54:07.360Z,84.20
2023-01-30T03:55:07.348Z,84.09
2023-01-30T03:56:07.370Z,83.89
2023-01-30T03:57:07.342Z,83.95
2023-01-30T03:58:07.321Z,83.99
2023-01-30T03:59:07.303Z,84.37
2023-01-30T04:00:07.325Z,84.61
2023-01-30T04:01:07.317Z,84.68
2023-01-30T04:02:07.314Z,84.89
2023-01-30T04:03:07.263Z,84.16
2023-01-30T04:04:07.257Z,84.27
2023-01-30T04:06:03.006Z,85.03
2023-01-30T04:07:02.995Z,85.44
2023-01-30T04:08:02.982Z,85.10
2023-01-30T04:09:02.976Z,85.34
2023-01-30T04:10:02.957Z,85.13
2023-01-30T04:11:02.945Z,85.30
2023-01-30T04:12:02.982Z,85.13
2023-01-30T04:13:02.925Z,85.51
2023-01-30T04:14:02.914Z,85.30
2023-01-30T04:15:02.905Z,85.41
2023-01-30T04:16:02.919Z,85.30
2023-01-30T04:17:02.900Z,85.20
2023-01-30T04:18:02.869Z,85.10
2023-01-30T04:19:02.855Z,84.68
2023-01-30T04:20:02.852Z,84.68
2023-01-30T04:21:02.837Z,84.78
2023-01-30T04:22:02.847Z,84.78
2023-01-30T04:23:02.819Z,84.99
2023-01-30T04:24:02.808Z,84.89
2023-01-30T04:25:02.795Z,84.89
2023-01-30T04:26:02.783Z,84.78
2023-01-30T04:27:02.791Z,84.89
2023-01-30T04:28:02.769Z,84.68
2023-01-30T04:29:02.753Z,84.78
2023-01-30T04:30:02.776Z,84.78
2023-01-30T04:31:02.744Z,84.68
2023-01-30T04:32:02.761Z,84.37
2023-01-30T04:33:02.707Z,84.47
2023-01-30T04:34:02.703Z,84.27
2023-01-30T04:35:02.685Z,84.78
2023-01-30T04:36:02.677Z,84.78
2023-01-30T04:37:02.671Z,84.84
2023-01-30T04:38:02.656Z,83.91
2023-01-30T04:39:02.645Z,84.33
2023-01-30T04:40:02.644Z,84.53
2023-01-30T04:41:02.624Z,84.22
2023-01-30T04:42:02.636Z,84.01
2023-01-30T04:43:02.601Z,83.60
2023-01-30T04:44:02.591Z,83.70
2023-01-30T04:45:02.580Z,84.01
2023-01-30T04:46:02.567Z,83.60
2023-01-30T04:47:02.583Z,84.01
2023-01-30T04:48:02.570Z,83.81
2023-01-30T04:49:02.551Z,84.01
2023-01-30T04:50:02.534Z,84.12
2023-01-30T04:51:02.520Z,84.33
2023-01-30T04:52:02.517Z,84.33
2023-01-30T04:53:02.516Z,84.22
2023-01-30T04:54:02.498Z,84.19
2023-01-30T04:55:02.471Z,84.43
2023-01-30T04:56:02.477Z,83.98
2023-01-30T04:57:02.462Z,84.50
2023-01-30T04:58:02.441Z,84.39
2023-01-30T04:59:02.430Z,84.29
2023-01-30T05:00:02.426Z,84.81
2023-01-30T05:01:02.595Z,84.70
2023-01-30T05:02:02.471Z,84.29
2023-01-30T05:03:02.394Z,84.08
2023-01-30T05:04:02.414Z,84.81
2023-01-30T05:05:02.381Z,85.02
2023-01-30T05:06:02.358Z,85.33
2023-01-30T05:07:02.368Z,85.43
2023-01-30T05:08:02.339Z,85.53
2023-01-30T05:09:02.326Z,85.33
2023-01-30T05:10:02.312Z,85.33
2023-01-30T05:11:02.298Z,85.68
2023-01-30T05:12:02.290Z,86.09
2023-01-30T05:13:02.299Z,86.30
2023-01-30T05:14:02.273Z,87.13
2023-01-30T05:15:02.268Z,87.03
2023-01-30T05:16:02.254Z,87.45
2023-01-30T05:17:02.311Z,87.24
2023-01-30T05:18:02.244Z,87.30
2023-01-30T05:19:02.239Z,88.17
2023-01-30T05:20:02.239Z,88.17
2023-01-30T05:21:02.218Z,87.96
2023-01-30T05:22:02.215Z,87.76
2023-01-30T05:23:02.195Z,87.76
2023-01-30T05:24:02.164Z,88.17
2023-01-30T05:25:02.151Z,88.38
2023-01-30T05:26:02.145Z,88.28
2023-01-30T05:27:02.132Z,88.38
2023-01-30T05:28:02.134Z,88.69
2023-01-30T05:29:02.113Z,88.73
2023-01-30T05:30:02.107Z,88.90
2023-01-30T05:31:02.286Z,89.25
2023-01-30T05:32:02.088Z,89.98
2023-01-30T05:33:02.153Z,89.56
2023-01-30T05:34:02.062Z,89.73
2023-01-30T05:35:02.047Z,89.36
2023-01-30T05:36:02.208Z,89.98
2023-01-30T05:37:02.035Z,90.29
2023-01-30T05:38:02.035Z,90.29
2023-01-30T05:39:02.015Z,89.36
2023-01-30T05:40:01.994Z,90.19
2023-01-30T05:41:02.016Z,90.08
2023-01-30T05:42:01.974Z,90.19
2023-01-30T05:43:01.983Z,89.25
2023-01-30T05:44:01.958Z,90.08
2023-01-30T05:45:01.967Z,89.67
2023-01-30T05:46:01.938Z,89.98
2023-01-30T05:47:01.918Z,89.62
2023-01-30T05:48:01.953Z,89.62
2023-01-30T05:49:01.895Z,89.94
2023-01-30T05:50:01.910Z,89.83
2023-01-30T05:51:01.880Z,89.77
2023-01-30T05:52:01.889Z,90.25
2023-01-30T05:53:01.898Z,90.04
2023-01-30T05:54:01.844Z,90.25
2023-01-30T05:55:01.840Z,89.94
2023-01-30T05:56:01.828Z,89.94
2023-01-30T05:57:01.811Z,89.62
2023-01-30T05:58:01.810Z,89.94
2023-01-30T05:59:01.797Z,90.45
2023-01-30T06:00:01.780Z,90.04
2023-01-30T06:01:01.782Z,89.94
2023-01-30T06:02:01.769Z,90.45
2023-01-30T06:03:01.813Z,89.73
2023-01-30T06:04:01.842Z,89.83
2023-01-30T06:05:01.730Z,89.77
2023-01-30T06:06:01.742Z,90.25
2023-01-30T06:07:01.713Z,89.94
2023-01-30T06:08:01.782Z,90.56
2023-01-30T06:09:01.684Z,90.45
2023-01-30T06:10:01.676Z,90.56
2023-01-30T06:11:01.722Z,90.87
2023-01-30T06:12:01.655Z,90.56
2023-01-30T06:13:01.661Z,90.45
2023-01-30T06:14:01.632Z,90.14
2023-01-30T06:15:01.630Z,90.87
2023-01-30T06:16:01.679Z,91.18
2023-01-30T06:17:01.624Z,91.18
2023-01-30T06:18:01.611Z,91.24
2023-01-30T06:19:01.587Z,91.55
2023-01-30T06:20:01.633Z,91.03
2023-01-30T06:21:01.565Z,90.14
2023-01-30T06:22:01.547Z,90.83
2023-01-30T06:23:01.583Z,90.87
2023-01-30T06:24:01.550Z,90.62
2023-01-30T06:25:01.511Z,91.18
2023-01-30T06:26:03.505Z,90.93
2023-01-30T06:27:01.493Z,91.03
2023-01-30T06:28:01.559Z,91.14
2023-01-30T06:29:01.482Z,91.03
2023-01-30T06:30:01.462Z,91.18
2023-01-30T06:31:01.619Z,91.35
2023-01-30T06:32:01.443Z,91.35
2023-01-30T06:33:01.445Z,91.86
2023-01-30T06:34:01.437Z,91.55
2023-01-30T06:35:01.410Z,91.55
2023-01-30T06:36:01.396Z,91.35
2023-01-30T06:37:01.389Z,91.45
2023-01-30T06:38:01.394Z,91.10
2023-01-30T06:39:01.366Z,91.55
2023-01-30T06:40:01.382Z,91.31
2023-01-30T06:41:01.361Z,91.41
2023-01-30T06:42:01.350Z,91.52
2023-01-30T06:43:01.338Z,91.41
2023-01-30T06:44:01.315Z,91.20
2023-01-30T06:45:01.299Z,91.45
2023-01-30T06:46:01.423Z,91.45
2023-01-30T06:47:01.284Z,91.35
2023-01-30T06:48:01.279Z,91.52
2023-01-30T06:49:01.261Z,91.20
2023-01-30T06:50:01.268Z,91.35
2023-01-30T06:51:01.238Z,91.62
2023-01-30T06:52:01.227Z,91.72
2023-01-30T06:53:01.237Z,91.72
2023-01-30T06:54:01.213Z,91.72
2023-01-30T06:55:01.203Z,91.52
2023-01-30T06:56:01.203Z,91.52
2023-01-30T06:57:01.173Z,91.20
2023-01-30T06:58:01.177Z,91.31
2023-01-30T06:59:01.153Z,91.27
2023-01-30T07:00:01.166Z,91.31
2023-01-30T07:01:01.131Z,91.47
2023-01-30T07:02:01.220Z,91.27
2023-01-30T07:03:01.127Z,91.37
2023-01-30T07:04:01.143Z,91.27
2023-01-30T07:05:01.091Z,91.37
2023-01-30T07:06:01.084Z,91.47
2023-01-30T07:07:01.087Z,91.20
2023-01-30T07:08:01.070Z,91.89
2023-01-30T07:09:01.048Z,91.89
2023-01-30T07:10:08.457Z,91.68
2023-01-30T07:11:02.024Z,91.99
2023-01-30T07:12:01.049Z,92.10
2023-01-30T07:13:01.018Z,92.26
2023-01-30T07:14:01.001Z,92.20
2023-01-30T07:15:01.010Z,92.10
2023-01-30T07:16:00.977Z,92.26
2023-01-30T07:17:01.052Z,91.95
2023-01-30T07:18:00.965Z,92.41
2023-01-30T07:19:00.942Z,92.36
2023-01-30T07:20:00.932Z,92.36
2023-01-30T07:21:00.919Z,92.36
2023-01-30T07:22:02.470Z,92.05
2023-01-30T07:23:00.910Z,92.16
2023-01-30T07:24:00.890Z,92.36
2023-01-30T07:25:00.886Z,92.47
2023-01-30T07:26:00.868Z,92.43
2023-01-30T07:27:00.869Z,92.84
2023-01-30T07:28:00.881Z,92.88
2023-01-30T07:29:00.849Z,92.57
2023-01-30T07:30:00.828Z,92.43
2023-01-30T07:31:00.878Z,92.43
2023-01-30T07:32:00.922Z,92.43
2023-01-30T07:33:00.811Z,92.63
2023-01-30T07:34:00.787Z,92.74
2023-01-30T07:35:00.779Z,92.43
2023-01-30T07:36:00.762Z,92.53
2023-01-30T07:37:00.754Z,92.63
2023-01-30T07:38:00.749Z,92.63
2023-01-30T07:39:00.733Z,92.84
2023-01-30T07:40:00.717Z,92.63
2023-01-30T07:41:00.712Z,92.63
2023-01-30T07:42:00.702Z,93.00
2023-01-30T07:43:00.730Z,92.74
2023-01-30T07:44:00.717Z,92.94
2023-01-30T07:45:00.674Z,92.90
2023-01-30T07:46:00.651Z,92.80
2023-01-30T07:47:00.750Z,92.80
2023-01-30T07:48:00.661Z,92.59
2023-01-30T07:49:00.624Z,92.80
2023-01-30T07:50:00.664Z,92.69
2023-01-30T07:51:00.602Z,92.69
2023-01-30T07:52:00.641Z,92.69
2023-01-30T07:53:00.620Z,92.80
2023-01-30T07:54:00.623Z,93.21
2023-01-30T07:55:01.607Z,92.69
2023-01-30T07:56:00.561Z,92.90
2023-01-30T07:57:00.550Z,92.90
2023-01-30T07:58:00.579Z,93.48
2023-01-30T07:59:00.533Z,93.52
2023-01-30T08:00:00.523Z,93.37
2023-01-30T08:01:00.562Z,93.37
2023-01-30T08:02:00.494Z,93.89
2023-01-30T08:03:00.486Z,93.89
2023-01-30T08:04:00.466Z,93.58
2023-01-30T08:05:00.550Z,93.48
2023-01-30T08:06:00.469Z,93.48
2023-01-30T08:07:00.450Z,93.79
2023-01-30T08:08:00.443Z,93.27
2023-01-30T08:09:00.417Z,93.27
2023-01-30T08:10:00.401Z,93.48
2023-01-30T08:11:00.387Z,93.74
2023-01-30T08:12:00.388Z,93.74
2023-01-30T08:13:00.409Z,93.48
2023-01-30T08:14:00.365Z,93.85
2023-01-30T08:15:00.345Z,93.43
2023-01-30T08:16:00.361Z,93.33
2023-01-30T08:17:00.324Z,93.64
2023-01-30T08:18:00.324Z,93.74
2023-01-30T08:19:00.302Z,93.95
2023-01-30T08:20:00.298Z,93.85
2023-01-30T08:21:00.284Z,93.74
2023-01-30T08:22:00.272Z,93.85
2023-01-30T08:23:00.273Z,93.43
2023-01-30T08:24:01.255Z,93.43
2023-01-30T08:25:00.243Z,93.54
2023-01-30T08:26:00.229Z,93.33
2023-01-30T08:27:00.221Z,93.39
2023-01-30T08:28:00.239Z,93.60
2023-01-30T08:29:00.196Z,93.95
2023-01-30T08:30:00.183Z,93.70
2023-01-30T08:31:00.355Z,93.85
2023-01-30T08:32:00.258Z,93.54
2023-01-30T08:33:00.153Z,93.85
2023-01-30T08:34:00.186Z,93.74
2023-01-30T08:35:00.144Z,93.74
2023-01-30T08:36:00.125Z,93.33
2023-01-30T08:37:00.115Z,93.43
2023-01-30T08:38:00.101Z,93.80
2023-01-30T08:39:00.122Z,93.29
2023-01-30T08:40:00.160Z,93.39
2023-01-30T08:41:00.098Z,93.18
2023-01-30T08:42:00.077Z,92.87
2023-01-30T08:43:00.069Z,93.18
2023-01-30T08:44:00.105Z,92.87
2023-01-30T08:45:00.037Z,92.87
2023-01-30T08:46:00.014Z,92.77
2023-01-30T08:47:00.007Z,92.46
2023-01-30T08:48:00.014Z,92.67
2023-01-30T08:48:59.993Z,92.67
2023-01-30T08:49:59.974Z,92.57
2023-01-30T08:50:59.962Z,92.77
2023-01-30T08:51:59.976Z,92.46
2023-01-30T08:52:59.943Z,92.46
2023-01-30T08:53:59.950Z,92.46
2023-01-30T08:54:59.923Z,92.46
2023-01-30T08:55:59.927Z,92.36
2023-01-30T08:56:59.900Z,92.15
2023-01-30T08:57:59.886Z,92.15
2023-01-30T08:58:59.890Z,91.84
2023-01-30T08:59:59.864Z,92.05
2023-01-30T09:00:59.958Z,91.94
2023-01-30T09:01:59.844Z,92.15
2023-01-30T09:02:59.848Z,91.74
2023-01-30T09:03:59.880Z,92.00
2023-01-30T09:04:59.846Z,91.90
2023-01-30T09:05:59.801Z,91.80
2023-01-30T09:06:59.795Z,92.00
2023-01-30T09:07:59.784Z,91.90
2023-01-30T09:08:59.797Z,91.69
2023-01-30T09:09:59.759Z,91.44
2023-01-30T09:10:59.755Z,91.24
2023-01-30T09:11:59.736Z,91.13
2023-01-30T09:12:59.734Z,90.68
2023-01-30T09:13:59.729Z,91.09
2023-01-30T09:14:59.707Z,90.99
2023-01-30T09:15:59.723Z,90.62
2023-01-30T09:16:59.782Z,90.00
2023-01-30T09:17:59.686Z,90.37
2023-01-30T09:18:59.675Z,90.47
2023-01-30T09:19:59.681Z,90.06
2023-01-30T09:20:59.651Z,90.06
2023-01-30T09:21:59.633Z,90.06
2023-01-30T09:22:59.628Z,89.86
2023-01-30T09:23:59.625Z,89.75
2023-01-30T09:24:59.601Z,89.89
2023-01-30T09:25:59.591Z,89.65
2023-01-30T09:26:59.580Z,89.54
2023-01-30T09:27:59.575Z,89.95
2023-01-30T09:28:59.572Z,89.75
2023-01-30T09:29:59.548Z,89.23
2023-01-30T09:30:59.651Z,89.86
2023-01-30T09:31:59.529Z,89.23
2023-01-30T09:32:59.515Z,89.34
2023-01-30T09:33:59.520Z,89.65
2023-01-30T09:34:59.500Z,89.54
2023-01-30T09:35:59.507Z,89.95
2023-01-30T09:36:59.476Z,89.23
2023-01-30T09:37:59.467Z,89.65
2023-01-30T09:38:59.468Z,89.44
2023-01-30T09:39:59.451Z,89.95
2023-01-30T09:40:59.433Z,89.54
2023-01-30T09:41:59.430Z,89.86
2023-01-30T09:42:59.410Z,89.13
2023-01-30T09:43:59.407Z,89.65
2023-01-30T09:44:59.402Z,89.65
2023-01-30T09:45:59.439Z,89.44
2023-01-30T09:46:59.374Z,89.75
2023-01-30T09:48:01.828Z,89.71
2023-01-30T09:48:59.370Z,89.86
2023-01-30T09:49:59.355Z,89.86
2023-01-30T09:50:59.324Z,89.50
2023-01-30T09:51:59.343Z,88.98
2023-01-30T09:52:59.300Z,89.29
2023-01-30T09:54:00.975Z,89.09
2023-01-30T09:54:59.278Z,89.25
2023-01-30T09:55:59.266Z,89.25
2023-01-30T09:56:59.261Z,89.67
2023-01-30T09:57:59.256Z,88.95
2023-01-30T09:58:59.267Z,88.95
2023-01-30T09:59:59.229Z,88.74
2023-01-30T10:00:59.216Z,88.74
2023-01-30T10:01:59.206Z,88.95
2023-01-30T10:02:59.195Z,88.53
2023-01-30T10:03:59.192Z,88.32
2023-01-30T10:05:01.898Z,88.02
2023-01-30T10:05:59.165Z,87.92
2023-01-30T10:06:59.152Z,88.02
2023-01-30T10:07:59.243Z,87.60
2023-01-30T10:08:59.143Z,87.60
2023-01-30T10:09:59.125Z,87.81
2023-01-30T10:11:09.504Z,86.88
2023-01-30T10:12:00.122Z,87.60
2023-01-30T10:12:59.084Z,87.19
2023-01-30T10:13:59.086Z,86.57
2023-01-30T10:14:59.071Z,86.78
2023-01-30T10:15:59.092Z,86.36
2023-01-30T10:16:59.040Z,85.91
2023-01-30T10:17:59.047Z,85.95
2023-01-30T10:18:59.056Z,85.30
2023-01-30T10:19:59.009Z,84.67
2023-01-30T10:20:58.995Z,84.33
2023-01-30T10:21:59.047Z,83.77
2023-01-30T10:22:59.000Z,82.43
2023-01-30T10:23:59.002Z,82.40
2023-01-30T10:24:58.954Z,81.61
2023-01-30T10:25:58.940Z,81.61
2023-01-30T10:26:58.935Z,81.47
2023-01-30T10:27:58.927Z,81.02
2023-01-30T10:29:07.390Z,80.53
2023-01-30T10:29:59.895Z,78.92
2023-01-30T10:30:58.985Z,77.44
2023-01-30T10:31:58.878Z,76.17
2023-01-30T10:32:58.866Z,74.77
2023-01-30T10:33:58.872Z,72.92
2023-01-30T10:34:58.847Z,70.43
2023-01-30T10:35:58.925Z,69.75
2023-01-30T10:36:58.826Z,69.24
2023-01-30T10:37:58.815Z,69.79
2023-01-30T10:38:58.816Z,70.12
2023-01-30T10:39:58.844Z,70.03
2023-01-30T10:40:58.784Z,70.57
2023-01-30T10:41:58.770Z,70.81
2023-01-30T10:42:58.759Z,71.39
2023-01-30T10:43:58.789Z,72.06
2023-01-30T10:44:58.743Z,72.78
2023-01-30T10:45:58.721Z,72.85
2023-01-30T10:46:58.714Z,73.36
2023-01-30T10:47:58.705Z,73.09
2023-01-30T10:48:58.704Z,74.12
2023-01-30T10:49:58.691Z,74.36
2023-01-30T10:50:58.680Z,74.67
2023-01-30T10:51:58.659Z,74.98
2023-01-30T10:52:58.661Z,75.73
2023-01-30T10:53:58.650Z,75.56
2023-01-30T10:54:58.631Z,75.77
2023-01-30T10:55:58.641Z,76.07
2023-01-30T10:56:58.605Z,75.87
2023-01-30T10:57:58.609Z,75.87
2023-01-30T10:58:58.597Z,75.67
2023-01-30T10:59:58.569Z,75.77
2023-01-30T11:00:58.562Z,76.18
2023-01-30T11:01:58.632Z,76.59
2023-01-30T11:02:58.626Z,76.59
2023-01-30T11:03:58.545Z,76.53
2023-01-30T11:04:58.519Z,76.49
2023-01-30T11:05:58.508Z,76.53
2023-01-30T11:06:58.515Z,77.35
2023-01-30T11:07:58.487Z,77.25
2023-01-30T11:08:58.492Z,77.55
2023-01-30T11:09:58.466Z,77.25
2023-01-30T11:10:58.498Z,76.53
2023-01-30T11:11:58.462Z,76.53
2023-01-30T11:12:58.432Z,76.63
2023-01-30T11:13:58.433Z,77.04
2023-01-30T11:14:58.423Z,77.18
2023-01-30T11:15:58.443Z,76.53
2023-01-30T11:16:58.389Z,77.28
2023-01-30T11:18:09.259Z,77.28
2023-01-30T11:19:59.354Z,77.69
2023-01-30T11:20:58.389Z,77.59
2023-01-30T11:21:58.334Z,77.69
2023-01-30T11:22:58.322Z,77.28
2023-01-30T11:23:58.341Z,77.48
2023-01-30T11:24:58.308Z,77.59
2023-01-30T11:26:10.545Z,77.48
2023-01-30T11:26:59.308Z,77.66
2023-01-30T11:27:58.300Z,77.38
2023-01-30T11:28:58.269Z,77.25
2023-01-30T11:29:58.247Z,76.83
2023-01-30T11:30:58.267Z,77.55
2023-01-30T11:31:58.357Z,77.28
2023-01-30T11:32:58.223Z,77.48
2023-01-30T11:33:58.215Z,77.48
2023-01-30T11:34:58.195Z,77.66
2023-01-30T11:35:58.215Z,77.90
2023-01-30T11:36:58.172Z,77.66
2023-01-30T11:37:58.163Z,77.55
2023-01-30T11:38:58.178Z,78.11
2023-01-30T11:39:58.144Z,77.66
2023-01-30T11:40:58.131Z,77.55
2023-01-30T11:41:58.118Z,77.51
2023-01-30T11:42:58.116Z,77.62
2023-01-30T11:43:58.143Z,77.11
2023-01-30T11:45:10.713Z,77.11
2023-01-30T11:45:59.128Z,77.42
2023-01-30T11:46:58.066Z,77.31
2023-01-30T11:47:59.374Z,77.55
2023-01-30T11:49:06.140Z,77.76
2023-01-30T11:50:00.337Z,77.66
2023-01-30T11:50:58.024Z,77.45
2023-01-30T11:51:58.029Z,77.35
2023-01-30T11:52:57.999Z,77.25
2023-01-30T11:53:58.004Z,76.83
2023-01-30T11:54:57.999Z,76.63
2023-01-30T11:56:05.405Z,77.04
2023-01-30T11:56:58.954Z,76.83
2023-01-30T11:57:57.949Z,76.21
2023-01-30T11:58:57.946Z,76.21
2023-01-30T11:59:57.960Z,76.07
2023-01-30T12:00:57.927Z,76.32
2023-01-30T12:01:57.922Z,76.39
2023-01-30T12:02:57.950Z,76.49
2023-01-30T12:03:57.913Z,76.53
2023-01-30T12:04:57.895Z,76.28
2023-01-30T12:05:57.863Z,76.21
2023-01-30T12:06:57.849Z,76.73
2023-01-30T12:07:57.969Z,77.25
2023-01-30T12:08:57.853Z,77.35
2023-01-30T12:09:57.906Z,76.73
2023-01-30T12:10:57.810Z,76.73
2023-01-30T12:11:57.798Z,77.14
2023-01-30T12:12:57.783Z,77.69
2023-01-30T12:13:57.777Z,78.93
2023-01-30T12:14:57.804Z,79.44
2023-01-30T12:15:57.780Z,79.72
2023-01-30T12:16:57.753Z,80.38
2023-01-30T12:17:57.787Z,80.93
2023-01-30T12:18:57.722Z,81.70
2023-01-30T12:19:57.725Z,82.25
2023-01-30T12:20:57.748Z,82.83
2023-01-30T12:21:57.704Z,83.45
2023-01-30T12:22:57.681Z,83.45
2023-01-30T12:23:57.666Z,83.45
2023-01-30T12:24:57.673Z,83.14
2023-01-30T12:25:57.680Z,83.51
2023-01-30T12:26:57.634Z,83.27
2023-01-30T12:27:59.220Z,83.27
2023-01-30T12:28:57.614Z,82.92
2023-01-30T12:29:57.614Z,82.96
2023-01-30T12:30:57.598Z,82.71
2023-01-30T12:31:57.597Z,82.40
2023-01-30T12:32:57.579Z,81.34
2023-01-30T12:33:57.561Z,80.10
2023-01-30T12:34:57.576Z,80.10
2023-01-30T12:35:57.547Z,79.27
2023-01-30T12:36:57.530Z,79.07
2023-01-30T12:37:57.515Z,78.00
2023-01-30T12:38:57.512Z,78.00
2023-01-30T12:39:57.505Z,77.48
2023-01-30T12:40:57.490Z,77.18
2023-01-30T12:41:57.469Z,77.18
2023-01-30T12:42:57.468Z,77.08
2023-01-30T12:43:57.452Z,77.86
2023-01-30T12:44:57.482Z,78.11
2023-01-30T12:45:57.472Z,78.21
2023-01-30T12:46:57.422Z,78.93
2023-01-30T12:47:57.424Z,78.76
2023-01-30T12:49:11.971Z,78.86
2023-01-30T12:49:58.393Z,79.48
2023-01-30T12:50:57.376Z,79.27
2023-01-30T12:51:57.364Z,79.07
2023-01-30T12:52:57.358Z,79.17
2023-01-30T12:53:57.345Z,79.58
2023-01-30T12:54:57.342Z,79.48